sensor_id;sensor_type;location;lat;lon;timestamp;pressure;altitude;pressure_sealevel;temperature;humidity
7668;BME280;3876;42.204;24.686;2022-09-20T00:00:44;99306.38;;;14.15;85.00
7668;BME280;3876;42.204;24.686;2022-09-20T00:03:12;99303.84;;;14.13;85.53
7668;BME280;3876;42.204;24.686;2022-09-20T00:05:41;99296.19;;;14.12;85.67
7668;BME280;3876;42.204;24.686;2022-09-20T00:08:11;99293.75;;;14.09;85.42
7668;BME280;3876;42.204;24.686;2022-09-20T00:10:38;99303.00;;;14.13;84.89
7668;BME280;3876;42.204;24.686;2022-09-20T00:13:06;99303.81;;;14.15;84.84
7668;BME280;3876;42.204;24.686;2022-09-20T00:15:39;99303.72;;;14.16;84.84
7668;BME280;3876;42.204;24.686;2022-09-20T00:18:07;99302.72;;;14.19;84.44
7668;BME280;3876;42.204;24.686;2022-09-20T00:20:34;99294.94;;;14.20;83.93
7668;BME280;3876;42.204;24.686;2022-09-20T00:23:00;99297.44;;;14.22;83.74
7668;BME280;3876;42.204;24.686;2022-09-20T00:25:27;99297.13;;;14.28;83.59
7668;BME280;3876;42.204;24.686;2022-09-20T00:27:54;99297.91;;;14.30;82.99
7668;BME280;3876;42.204;24.686;2022-09-20T00:30:21;99306.41;;;14.32;82.95
7668;BME280;3876;42.204;24.686;2022-09-20T00:32:49;99284.25;;;14.28;83.00
7668;BME280;3876;42.204;24.686;2022-09-20T00:35:16;99289.16;;;14.34;82.65
7668;BME280;3876;42.204;24.686;2022-09-20T00:37:42;99295.25;;;14.32;82.66
7668;BME280;3876;42.204;24.686;2022-09-20T00:40:12;99298.97;;;14.26;82.95
7668;BME280;3876;42.204;24.686;2022-09-20T00:42:40;99297.13;;;14.28;83.07
7668;BME280;3876;42.204;24.686;2022-09-20T00:45:09;99300.66;;;14.27;83.40
7668;BME280;3876;42.204;24.686;2022-09-20T00:47:49;99303.97;;;14.29;83.43
7668;BME280;3876;42.204;24.686;2022-09-20T00:50:25;99306.94;;;14.22;84.00
7668;BME280;3876;42.204;24.686;2022-09-20T00:52:56;99304.25;;;14.23;83.82
7668;BME280;3876;42.204;24.686;2022-09-20T00:55:25;99302.72;;;14.19;84.01
7668;BME280;3876;42.204;24.686;2022-09-20T00:57:53;99294.53;;;14.11;84.16
7668;BME280;3876;42.204;24.686;2022-09-20T01:00:20;99313.13;;;14.17;83.97
7668;BME280;3876;42.204;24.686;2022-09-20T01:02:51;99296.66;;;14.20;84.52
7668;BME280;3876;42.204;24.686;2022-09-20T01:05:19;99287.41;;;14.16;84.64
7668;BME280;3876;42.204;24.686;2022-09-20T01:07:49;99294.53;;;14.11;85.36
7668;BME280;3876;42.204;24.686;2022-09-20T01:10:17;99288.72;;;14.06;86.00
7668;BME280;3876;42.204;24.686;2022-09-20T01:12:44;99291.44;;;14.03;85.96
7668;BME280;3876;42.204;24.686;2022-09-20T01:15:13;99289.28;;;13.94;87.03
7668;BME280;3876;42.204;24.686;2022-09-20T01:17:45;99287.91;;;13.87;87.57
7668;BME280;3876;42.204;24.686;2022-09-20T01:20:21;99280.41;;;13.82;87.89
7668;BME280;3876;42.204;24.686;2022-09-20T01:26:06;99267.47;;;13.63;88.63
7668;BME280;3876;42.204;24.686;2022-09-20T01:28:39;99290.47;;;13.68;89.70
7668;BME280;3876;42.204;24.686;2022-09-20T01:31:12;99279.75;;;13.58;90.16
7668;BME280;3876;42.204;24.686;2022-09-20T01:33:46;99283.22;;;13.57;90.03
7668;BME280;3876;42.204;24.686;2022-09-20T01:36:17;99282.31;;;13.58;89.43
7668;BME280;3876;42.204;24.686;2022-09-20T01:38:54;99294.22;;;13.61;89.23
7668;BME280;3876;42.204;24.686;2022-09-20T01:41:28;99291.59;;;13.62;88.55
7668;BME280;3876;42.204;24.686;2022-09-20T01:44:05;99302.88;;;13.60;89.14
7668;BME280;3876;42.204;24.686;2022-09-20T01:46:40;99310.38;;;13.64;88.62
7668;BME280;3876;42.204;24.686;2022-09-20T01:49:22;99307.03;;;13.62;88.38
7668;BME280;3876;42.204;24.686;2022-09-20T01:52:27;99297.16;;;13.53;88.27
7668;BME280;3876;42.204;24.686;2022-09-20T01:58:44;99305.81;;;13.51;88.57
7668;BME280;3876;42.204;24.686;2022-09-20T02:01:36;99309.22;;;13.51;88.00
7668;BME280;3876;42.204;24.686;2022-09-20T02:04:29;99312.78;;;13.49;88.35
7668;BME280;3876;42.204;24.686;2022-09-20T02:07:11;99313.69;;;13.48;88.58
7668;BME280;3876;42.204;24.686;2022-09-20T02:10:02;99312.41;;;13.38;88.68
7668;BME280;3876;42.204;24.686;2022-09-20T02:12:46;99314.28;;;13.34;88.73
7668;BME280;3876;42.204;24.686;2022-09-20T02:18:24;99311.78;;;13.33;88.37
7668;BME280;3876;42.204;24.686;2022-09-20T02:21:03;99315.44;;;13.27;88.66
7668;BME280;3876;42.204;24.686;2022-09-20T02:23:39;99313.91;;;13.23;88.30
7668;BME280;3876;42.204;24.686;2022-09-20T02:26:21;99300.50;;;13.15;88.90
7668;BME280;3876;42.204;24.686;2022-09-20T02:28:55;99315.91;;;13.17;89.23
7668;BME280;3876;42.204;24.686;2022-09-20T02:31:51;99320.19;;;13.16;88.08
7668;BME280;3876;42.204;24.686;2022-09-20T02:34:36;99313.38;;;13.15;88.07
7668;BME280;3876;42.204;24.686;2022-09-20T02:37:21;99315.94;;;13.15;87.70
7668;BME280;3876;42.204;24.686;2022-09-20T02:40:00;99322.78;;;13.16;87.36
7668;BME280;3876;42.204;24.686;2022-09-20T02:42:36;99307.94;;;13.01;86.53
7668;BME280;3876;42.204;24.686;2022-09-20T02:45:08;99322.91;;;13.13;86.42
7668;BME280;3876;42.204;24.686;2022-09-20T02:47:41;99311.16;;;13.06;85.75
7668;BME280;3876;42.204;24.686;2022-09-20T02:50:23;99295.78;;;13.04;85.40
7668;BME280;3876;42.204;24.686;2022-09-20T02:53:03;99321.81;;;13.19;84.96
7668;BME280;3876;42.204;24.686;2022-09-20T02:55:37;99332.09;;;13.19;85.36
7668;BME280;3876;42.204;24.686;2022-09-20T02:58:17;99339.91;;;13.17;84.91
7668;BME280;3876;42.204;24.686;2022-09-20T03:00:53;99347.38;;;13.23;84.68
7668;BME280;3876;42.204;24.686;2022-09-20T03:03:35;99342.97;;;13.25;85.03
7668;BME280;3876;42.204;24.686;2022-09-20T03:06:12;99343.09;;;13.22;85.33
7668;BME280;3876;42.204;24.686;2022-09-20T03:08:49;99341.59;;;13.18;85.79
7668;BME280;3876;42.204;24.686;2022-09-20T03:11:26;99336.31;;;13.21;85.43
7668;BME280;3876;42.204;24.686;2022-09-20T03:14:18;99345.81;;;13.19;85.09
7668;BME280;3876;42.204;24.686;2022-09-20T03:17:00;99348.66;;;13.13;85.09
7668;BME280;3876;42.204;24.686;2022-09-20T03:19:37;99357.06;;;13.17;85.41
7668;BME280;3876;42.204;24.686;2022-09-20T03:22:18;99355.53;;;13.12;85.15
7668;BME280;3876;42.204;24.686;2022-09-20T03:24:58;99367.06;;;13.24;84.44
7668;BME280;3876;42.204;24.686;2022-09-20T03:27:36;99369.56;;;13.26;84.36
7668;BME280;3876;42.204;24.686;2022-09-20T03:30:21;99353.78;;;13.13;84.18
7668;BME280;3876;42.204;24.686;2022-09-20T03:32:59;99379.03;;;13.25;83.76
7668;BME280;3876;42.204;24.686;2022-09-20T03:35:40;99372.34;;;13.21;83.81
7668;BME280;3876;42.204;24.686;2022-09-20T03:41:30;99370.31;;;13.07;84.56
7668;BME280;3876;42.204;24.686;2022-09-20T03:44:26;99364.94;;;12.92;85.21
7668;BME280;3876;42.204;24.686;2022-09-20T03:47:05;99379.41;;;12.94;85.04
7668;BME280;3876;42.204;24.686;2022-09-20T03:50:11;99383.13;;;12.87;84.98
7668;BME280;3876;42.204;24.686;2022-09-20T03:52:56;99377.94;;;12.89;84.81
7668;BME280;3876;42.204;24.686;2022-09-20T03:55:55;99389.22;;;12.85;85.32
7668;BME280;3876;42.204;24.686;2022-09-20T03:58:43;99396.94;;;12.85;85.74
7668;BME280;3876;42.204;24.686;2022-09-20T04:01:27;99401.13;;;12.87;85.36
7668;BME280;3876;42.204;24.686;2022-09-20T04:04:05;99391.59;;;12.89;85.35
7668;BME280;3876;42.204;24.686;2022-09-20T04:07:08;99391.84;;;12.83;85.10
7668;BME280;3876;42.204;24.686;2022-09-20T04:12:32;99396.41;;;12.77;85.69
7668;BME280;3876;42.204;24.686;2022-09-20T04:15:17;99361.25;;;12.55;84.85
7668;BME280;3876;42.204;24.686;2022-09-20T04:17:56;99369.00;;;12.54;84.82
7668;BME280;3876;42.204;24.686;2022-09-20T04:20:31;99403.34;;;12.75;85.34
7668;BME280;3876;42.204;24.686;2022-09-20T04:23:07;99413.75;;;12.72;85.11
7668;BME280;3876;42.204;24.686;2022-09-20T04:25:41;99415.47;;;12.71;85.34
7668;BME280;3876;42.204;24.686;2022-09-20T04:28:14;99417.22;;;12.71;85.83
7668;BME280;3876;42.204;24.686;2022-09-20T04:30:45;99406.16;;;12.69;85.69
7668;BME280;3876;42.204;24.686;2022-09-20T04:33:17;99403.72;;;12.66;85.57
7668;BME280;3876;42.204;24.686;2022-09-20T04:35:54;99413.06;;;12.67;86.08
7668;BME280;3876;42.204;24.686;2022-09-20T04:38:40;99413.00;;;12.70;86.35
7668;BME280;3876;42.204;24.686;2022-09-20T04:41:24;99417.09;;;12.74;85.98
7668;BME280;3876;42.204;24.686;2022-09-20T04:47:39;99410.06;;;12.79;85.33
7668;BME280;3876;42.204;24.686;2022-09-20T04:50:37;99410.66;;;12.85;84.99
7668;BME280;3876;42.204;24.686;2022-09-20T04:53:21;99403.44;;;12.93;84.50
7668;BME280;3876;42.204;24.686;2022-09-20T04:55:59;99413.38;;;13.02;84.42
7668;BME280;3876;42.204;24.686;2022-09-20T04:58:38;99403.34;;;12.96;84.47
7668;BME280;3876;42.204;24.686;2022-09-20T05:08:03;99416.88;;;13.63;82.28
7668;BME280;3876;42.204;24.686;2022-09-20T05:10:53;99393.97;;;13.78;80.66
7668;BME280;3876;42.204;24.686;2022-09-20T05:13:33;99410.66;;;14.08;80.31
7668;BME280;3876;42.204;24.686;2022-09-20T05:16:07;99408.09;;;14.27;79.78
7668;BME280;3876;42.204;24.686;2022-09-20T05:19:06;99415.72;;;14.48;78.42
7668;BME280;3876;42.204;24.686;2022-09-20T05:21:48;99417.88;;;14.57;78.36
7668;BME280;3876;42.204;24.686;2022-09-20T05:24:39;99410.06;;;14.78;77.07
7668;BME280;3876;42.204;24.686;2022-09-20T05:27:23;99415.75;;;14.84;77.52
7668;BME280;3876;42.204;24.686;2022-09-20T05:29:58;99407.97;;;14.67;76.71
7668;BME280;3876;42.204;24.686;2022-09-20T05:32:34;99426.25;;;14.62;77.49
7668;BME280;3876;42.204;24.686;2022-09-20T05:35:15;99430.16;;;14.52;77.25
7668;BME280;3876;42.204;24.686;2022-09-20T05:37:49;99436.88;;;14.56;76.82
7668;BME280;3876;42.204;24.686;2022-09-20T05:40:24;99429.41;;;14.50;77.87
7668;BME280;3876;42.204;24.686;2022-09-20T05:42:59;99432.69;;;14.54;77.79
7668;BME280;3876;42.204;24.686;2022-09-20T05:45:51;99432.88;;;14.49;76.51
7668;BME280;3876;42.204;24.686;2022-09-20T05:48:33;99447.59;;;14.47;77.67
7668;BME280;3876;42.204;24.686;2022-09-20T05:51:09;99449.25;;;14.48;77.13
7668;BME280;3876;42.204;24.686;2022-09-20T05:53:59;99460.97;;;14.55;76.83
7668;BME280;3876;42.204;24.686;2022-09-20T05:56:39;99459.88;;;14.80;75.74
7668;BME280;3876;42.204;24.686;2022-09-20T05:59:25;99460.75;;;14.97;75.21
7668;BME280;3876;42.204;24.686;2022-09-20T06:02:01;99459.94;;;15.14;76.22
7668;BME280;3876;42.204;24.686;2022-09-20T06:04:39;99458.84;;;15.37;73.78
7668;BME280;3876;42.204;24.686;2022-09-20T06:07:19;99451.78;;;15.40;74.40
7668;BME280;3876;42.204;24.686;2022-09-20T06:10:08;99455.88;;;15.27;72.65
7668;BME280;3876;42.204;24.686;2022-09-20T06:12:50;99451.59;;;15.26;73.43
7668;BME280;3876;42.204;24.686;2022-09-20T06:15:25;99452.25;;;15.48;72.75
7668;BME280;3876;42.204;24.686;2022-09-20T06:17:59;99459.66;;;15.56;71.07
7668;BME280;3876;42.204;24.686;2022-09-20T06:20:32;99448.56;;;15.35;71.32
7668;BME280;3876;42.204;24.686;2022-09-20T06:23:04;99454.88;;;15.30;72.44
7668;BME280;3876;42.204;24.686;2022-09-20T06:25:37;99456.91;;;15.23;73.35
7668;BME280;3876;42.204;24.686;2022-09-20T06:28:12;99458.25;;;15.13;72.43
7668;BME280;3876;42.204;24.686;2022-09-20T06:30:43;99459.56;;;15.04;71.09
7668;BME280;3876;42.204;24.686;2022-09-20T06:33:14;99442.13;;;14.91;69.89
7668;BME280;3876;42.204;24.686;2022-09-20T06:35:45;99456.41;;;14.98;70.80
7668;BME280;3876;42.204;24.686;2022-09-20T06:38:36;99460.69;;;14.99;70.91
7668;BME280;3876;42.204;24.686;2022-09-20T06:41:26;99462.19;;;15.03;69.69
7668;BME280;3876;42.204;24.686;2022-09-20T06:43:54;99446.59;;;14.87;69.22
7668;BME280;3876;42.204;24.686;2022-09-20T06:46:23;99450.50;;;14.77;69.72
7668;BME280;3876;42.204;24.686;2022-09-20T06:48:50;99474.28;;;14.84;69.31
7668;BME280;3876;42.204;24.686;2022-09-20T06:51:16;99454.44;;;14.86;70.37
7668;BME280;3876;42.204;24.686;2022-09-20T06:53:45;99477.13;;;15.15;69.87
7668;BME280;3876;42.204;24.686;2022-09-20T06:56:17;99480.69;;;15.48;69.08
7668;BME280;3876;42.204;24.686;2022-09-20T06:58:44;99485.72;;;15.68;66.68
7668;BME280;3876;42.204;24.686;2022-09-20T07:01:11;99479.34;;;15.75;67.42
7668;BME280;3876;42.204;24.686;2022-09-20T07:03:38;99482.03;;;15.90;66.08
7668;BME280;3876;42.204;24.686;2022-09-20T07:06:05;99474.88;;;16.12;65.08
7668;BME280;3876;42.204;24.686;2022-09-20T07:08:33;99490.91;;;16.51;63.58
7668;BME280;3876;42.204;24.686;2022-09-20T07:11:04;99484.69;;;16.71;62.81
7668;BME280;3876;42.204;24.686;2022-09-20T07:13:31;99498.47;;;16.71;63.62
7668;BME280;3876;42.204;24.686;2022-09-20T07:16:03;99486.81;;;16.96;60.57
7668;BME280;3876;42.204;24.686;2022-09-20T07:18:32;99488.38;;;17.14;60.98
7668;BME280;3876;42.204;24.686;2022-09-20T07:20:59;99496.53;;;17.38;60.97
7668;BME280;3876;42.204;24.686;2022-09-20T07:23:26;99491.25;;;17.39;60.36
7668;BME280;3876;42.204;24.686;2022-09-20T07:25:54;99496.53;;;17.38;59.73
7668;BME280;3876;42.204;24.686;2022-09-20T07:28:25;99490.59;;;17.36;61.19
7668;BME280;3876;42.204;24.686;2022-09-20T07:30:52;99498.78;;;17.59;60.23
7668;BME280;3876;42.204;24.686;2022-09-20T07:33:19;99491.66;;;17.93;59.91
7668;BME280;3876;42.204;24.686;2022-09-20T07:35:51;99497.25;;;18.15;58.96
7668;BME280;3876;42.204;24.686;2022-09-20T07:38:19;99488.31;;;18.05;57.96
7668;BME280;3876;42.204;24.686;2022-09-20T07:40:53;99481.03;;;18.11;57.99
7668;BME280;3876;42.204;24.686;2022-09-20T07:43:20;99487.59;;;18.45;56.75
7668;BME280;3876;42.204;24.686;2022-09-20T07:45:50;99482.25;;;18.62;57.08
7668;BME280;3876;42.204;24.686;2022-09-20T07:48:20;99487.81;;;18.56;55.88
7668;BME280;3876;42.204;24.686;2022-09-20T07:50:49;99485.41;;;18.67;57.00
7668;BME280;3876;42.204;24.686;2022-09-20T07:53:16;99477.28;;;18.86;53.98
7668;BME280;3876;42.204;24.686;2022-09-20T07:55:43;99477.56;;;18.96;53.51
7668;BME280;3876;42.204;24.686;2022-09-20T07:58:10;99461.56;;;19.02;54.40
7668;BME280;3876;42.204;24.686;2022-09-20T08:00:36;99479.88;;;19.13;55.88
7668;BME280;3876;42.204;24.686;2022-09-20T08:03:04;99473.19;;;19.23;55.69
7668;BME280;3876;42.204;24.686;2022-09-20T08:05:31;99485.28;;;19.36;53.34
7668;BME280;3876;42.204;24.686;2022-09-20T08:08:00;99483.72;;;19.48;53.46
7668;BME280;3876;42.204;24.686;2022-09-20T08:10:27;99471.22;;;19.53;52.06
7668;BME280;3876;42.204;24.686;2022-09-20T08:12:53;99464.28;;;19.66;52.87
7668;BME280;3876;42.204;24.686;2022-09-20T08:15:20;99453.16;;;19.64;49.74
7668;BME280;3876;42.204;24.686;2022-09-20T08:17:47;99461.72;;;19.91;49.50
7668;BME280;3876;42.204;24.686;2022-09-20T08:20:15;99460.78;;;20.18;52.04
7668;BME280;3876;42.204;24.686;2022-09-20T08:22:42;99459.22;;;20.40;49.92
7668;BME280;3876;42.204;24.686;2022-09-20T08:25:09;99458.28;;;20.54;47.12
7668;BME280;3876;42.204;24.686;2022-09-20T08:27:36;99465.22;;;20.66;44.59
7668;BME280;3876;42.204;24.686;2022-09-20T08:30:03;99456.38;;;20.92;48.26
7668;BME280;3876;42.204;24.686;2022-09-20T08:32:30;99451.75;;;21.09;43.85
7668;BME280;3876;42.204;24.686;2022-09-20T08:34:58;99448.63;;;21.04;44.31
7668;BME280;3876;42.204;24.686;2022-09-20T08:37:26;99446.22;;;21.01;43.18
7668;BME280;3876;42.204;24.686;2022-09-20T08:39:52;99448.84;;;21.01;44.11
7668;BME280;3876;42.204;24.686;2022-09-20T08:42:24;99443.00;;;21.10;44.62
7668;BME280;3876;42.204;24.686;2022-09-20T08:44:55;99447.81;;;21.03;44.97
7668;BME280;3876;42.204;24.686;2022-09-20T08:47:26;99443.13;;;20.95;44.13
7668;BME280;3876;42.204;24.686;2022-09-20T08:49:54;99438.63;;;20.98;44.53
7668;BME280;3876;42.204;24.686;2022-09-20T08:52:26;99429.19;;;20.97;43.46
7668;BME280;3876;42.204;24.686;2022-09-20T08:54:54;99427.53;;;21.07;46.05
7668;BME280;3876;42.204;24.686;2022-09-20T08:57:25;99428.56;;;21.17;46.23
7668;BME280;3876;42.204;24.686;2022-09-20T08:59:53;99414.97;;;21.24;44.97
7668;BME280;3876;42.204;24.686;2022-09-20T09:02:20;99427.91;;;21.26;46.83
7668;BME280;3876;42.204;24.686;2022-09-20T09:04:48;99399.88;;;21.17;44.69
7668;BME280;3876;42.204;24.686;2022-09-20T09:07:19;99419.13;;;21.27;43.33
7668;BME280;3876;42.204;24.686;2022-09-20T09:09:51;99421.44;;;21.42;45.71
7668;BME280;3876;42.204;24.686;2022-09-20T09:12:23;99415.28;;;21.43;45.16
7668;BME280;3876;42.204;24.686;2022-09-20T09:14:50;99409.81;;;21.35;42.90
7668;BME280;3876;42.204;24.686;2022-09-20T09:17:22;99389.75;;;21.25;44.74
7668;BME280;3876;42.204;24.686;2022-09-20T09:19:51;99419.69;;;21.54;44.07
7668;BME280;3876;42.204;24.686;2022-09-20T09:22:21;99415.28;;;21.43;43.68
7668;BME280;3876;42.204;24.686;2022-09-20T09:25:18;99407.88;;;21.61;45.29
7668;BME280;3876;42.204;24.686;2022-09-20T09:27:54;99401.81;;;21.61;43.81
7668;BME280;3876;42.204;24.686;2022-09-20T09:30:24;99415.94;;;21.69;42.07
7668;BME280;3876;42.204;24.686;2022-09-20T09:32:52;99387.03;;;21.83;42.70
7668;BME280;3876;42.204;24.686;2022-09-20T09:35:39;99401.00;;;21.82;42.28
7668;BME280;3876;42.204;24.686;2022-09-20T09:38:16;99397.94;;;21.88;43.89
7668;BME280;3876;42.204;24.686;2022-09-20T09:40:51;99391.56;;;22.04;42.27
7668;BME280;3876;42.204;24.686;2022-09-20T09:43:20;99397.63;;;22.15;41.44
7668;BME280;3876;42.204;24.686;2022-09-20T09:45:52;99387.06;;;22.28;43.42
7668;BME280;3876;42.204;24.686;2022-09-20T09:48:23;99388.47;;;22.32;42.22
7668;BME280;3876;42.204;24.686;2022-09-20T09:51:06;99388.72;;;22.29;43.79
7668;BME280;3876;42.204;24.686;2022-09-20T09:53:33;99396.06;;;22.24;41.61
7668;BME280;3876;42.204;24.686;2022-09-20T09:56:15;99386.34;;;22.15;41.69
7668;BME280;3876;42.204;24.686;2022-09-20T09:59:00;99386.69;;;22.10;41.72
7668;BME280;3876;42.204;24.686;2022-09-20T10:01:38;99378.84;;;22.10;41.55
7668;BME280;3876;42.204;24.686;2022-09-20T10:04:12;99376.25;;;22.21;41.22
7668;BME280;3876;42.204;24.686;2022-09-20T10:06:47;99367.81;;;22.29;41.56
7668;BME280;3876;42.204;24.686;2022-09-20T10:09:27;99373.78;;;22.09;44.17
7668;BME280;3876;42.204;24.686;2022-09-20T10:12:08;99367.72;;;21.97;42.64
7668;BME280;3876;42.204;24.686;2022-09-20T10:14:58;99363.53;;;22.17;45.20
7668;BME280;3876;42.204;24.686;2022-09-20T10:17:39;99367.09;;;22.38;43.28
7668;BME280;3876;42.204;24.686;2022-09-20T10:20:23;99362.06;;;22.46;43.32
7668;BME280;3876;42.204;24.686;2022-09-20T10:23:02;99347.63;;;22.42;41.38
7668;BME280;3876;42.204;24.686;2022-09-20T10:25:39;99346.69;;;22.32;42.29
7668;BME280;3876;42.204;24.686;2022-09-20T10:28:17;99351.31;;;22.28;42.24
7668;BME280;3876;42.204;24.686;2022-09-20T10:30:56;99352.00;;;22.41;45.44
7668;BME280;3876;42.204;24.686;2022-09-20T10:33:35;99348.91;;;22.47;41.59
7668;BME280;3876;42.204;24.686;2022-09-20T10:36:13;99360.28;;;22.69;39.64
7668;BME280;3876;42.204;24.686;2022-09-20T10:38:45;99351.63;;;22.57;40.21
7668;BME280;3876;42.204;24.686;2022-09-20T10:41:30;99355.16;;;22.56;39.90
7668;BME280;3876;42.204;24.686;2022-09-20T10:44:33;99361.09;;;22.69;43.45
7668;BME280;3876;42.204;24.686;2022-09-20T10:47:11;99351.13;;;22.63;43.58
7668;BME280;3876;42.204;24.686;2022-09-20T10:49:41;99356.13;;;22.66;40.21
7668;BME280;3876;42.204;24.686;2022-09-20T10:55:19;99336.50;;;22.72;41.38
7668;BME280;3876;42.204;24.686;2022-09-20T11:01:02;99339.94;;;22.72;39.48
7668;BME280;3876;42.204;24.686;2022-09-20T11:06:45;99330.59;;;22.70;39.40
7668;BME280;3876;42.204;24.686;2022-09-20T11:09:19;99324.78;;;22.66;40.50
7668;BME280;3876;42.204;24.686;2022-09-20T11:11:51;99327.59;;;22.74;37.29
7668;BME280;3876;42.204;24.686;2022-09-20T11:14:24;99323.91;;;22.77;37.86
7668;BME280;3876;42.204;24.686;2022-09-20T11:17:02;99324.53;;;22.69;37.84
7668;BME280;3876;42.204;24.686;2022-09-20T11:19:42;99319.50;;;22.77;39.13
7668;BME280;3876;42.204;24.686;2022-09-20T11:22:17;99313.31;;;22.78;37.27
7668;BME280;3876;42.204;24.686;2022-09-20T11:24:49;99321.03;;;22.80;38.40
7668;BME280;3876;42.204;24.686;2022-09-20T11:27:20;99311.91;;;22.63;37.10
7668;BME280;3876;42.204;24.686;2022-09-20T11:29:52;99317.16;;;22.74;37.67
7668;BME280;3876;42.204;24.686;2022-09-20T11:32:25;99315.56;;;22.83;36.94
7668;BME280;3876;42.204;24.686;2022-09-20T11:34:56;99313.06;;;22.81;35.98
7668;BME280;3876;42.204;24.686;2022-09-20T11:37:29;99304.78;;;22.76;36.93
7668;BME280;3876;42.204;24.686;2022-09-20T11:40:00;99302.91;;;22.56;37.11
7668;BME280;3876;42.204;24.686;2022-09-20T11:42:33;99306.50;;;22.55;37.23
7668;BME280;3876;42.204;24.686;2022-09-20T11:45:01;99291.97;;;22.62;39.03
7668;BME280;3876;42.204;24.686;2022-09-20T11:47:33;99301.00;;;22.69;35.57
7668;BME280;3876;42.204;24.686;2022-09-20T11:50:28;99281.16;;;22.78;37.19
7668;BME280;3876;42.204;24.686;2022-09-20T11:53:10;99292.72;;;22.85;35.30
7668;BME280;3876;42.204;24.686;2022-09-20T11:55:47;99277.63;;;22.88;35.30
7668;BME280;3876;42.204;24.686;2022-09-20T11:58:18;99285.53;;;22.98;36.29
7668;BME280;3876;42.204;24.686;2022-09-20T12:00:48;99280.44;;;22.96;37.01
7668;BME280;3876;42.204;24.686;2022-09-20T12:03:28;99283.44;;;22.92;35.96
7668;BME280;3876;42.204;24.686;2022-09-20T12:05:58;99290.84;;;22.87;34.20
7668;BME280;3876;42.204;24.686;2022-09-20T12:08:27;99280.31;;;22.77;34.92
7668;BME280;3876;42.204;24.686;2022-09-20T12:10:58;99296.09;;;22.76;33.25
7668;BME280;3876;42.204;24.686;2022-09-20T12:13:26;99290.19;;;22.74;33.68
7668;BME280;3876;42.204;24.686;2022-09-20T12:16:02;99296.00;;;22.77;34.25
7668;BME280;3876;42.204;24.686;2022-09-20T12:18:37;99294.56;;;22.73;33.88
7668;BME280;3876;42.204;24.686;2022-09-20T12:21:13;99287.94;;;22.69;34.53
7668;BME280;3876;42.204;24.686;2022-09-20T12:24:16;99289.72;;;22.69;34.66
7668;BME280;3876;42.204;24.686;2022-09-20T12:26:48;99286.59;;;22.75;34.59
7668;BME280;3876;42.204;24.686;2022-09-20T12:32:50;99279.81;;;22.83;33.62
7668;BME280;3876;42.204;24.686;2022-09-20T12:38:54;99272.13;;;22.91;32.73
7668;BME280;3876;42.204;24.686;2022-09-20T12:41:22;99276.22;;;22.84;33.47
7668;BME280;3876;42.204;24.686;2022-09-20T12:43:54;99275.16;;;22.87;34.24
7668;BME280;3876;42.204;24.686;2022-09-20T12:46:30;99259.53;;;22.96;36.96
7668;BME280;3876;42.204;24.686;2022-09-20T12:49:41;99261.16;;;22.97;35.01
7668;BME280;3876;42.204;24.686;2022-09-20T12:52:32;99272.59;;;22.96;34.07
7668;BME280;3876;42.204;24.686;2022-09-20T12:55:43;99262.41;;;22.93;34.04
7668;BME280;3876;42.204;24.686;2022-09-20T12:58:23;99255.69;;;23.00;33.18
7668;BME280;3876;42.204;24.686;2022-09-20T13:01:30;99262.84;;;22.98;34.22
7668;BME280;3876;42.204;24.686;2022-09-20T13:07:29;99262.84;;;22.98;33.12
7668;BME280;3876;42.204;24.686;2022-09-20T13:10:01;99266.41;;;22.97;33.48
7668;BME280;3876;42.204;24.686;2022-09-20T13:12:35;99255.50;;;22.92;34.39
7668;BME280;3876;42.204;24.686;2022-09-20T13:15:03;99266.13;;;23.00;34.58
7668;BME280;3876;42.204;24.686;2022-09-20T13:17:32;99234.66;;;22.81;34.37
7668;BME280;3876;42.204;24.686;2022-09-20T13:20:00;99269.91;;;23.08;34.69
7668;BME280;3876;42.204;24.686;2022-09-20T13:22:29;99262.78;;;23.10;35.17
7668;BME280;3876;42.204;24.686;2022-09-20T13:25:03;99255.31;;;23.05;35.00
7668;BME280;3876;42.204;24.686;2022-09-20T13:27:34;99262.06;;;23.08;35.41
7668;BME280;3876;42.204;24.686;2022-09-20T13:30:10;99267.56;;;23.05;33.78
7668;BME280;3876;42.204;24.686;2022-09-20T13:32:40;99267.28;;;23.08;34.31
7668;BME280;3876;42.204;24.686;2022-09-20T13:35:13;99269.38;;;23.14;35.27
7668;BME280;3876;42.204;24.686;2022-09-20T13:37:49;99264.41;;;23.11;33.18
7668;BME280;3876;42.204;24.686;2022-09-20T13:40:18;99268.97;;;23.09;33.97
7668;BME280;3876;42.204;24.686;2022-09-20T13:42:47;99263.84;;;23.07;33.46
7668;BME280;3876;42.204;24.686;2022-09-20T13:45:16;99266.97;;;23.01;34.04
7668;BME280;3876;42.204;24.686;2022-09-20T13:47:47;99264.94;;;23.05;33.81
7668;BME280;3876;42.204;24.686;2022-09-20T13:50:17;99269.72;;;22.99;33.47
7668;BME280;3876;42.204;24.686;2022-09-20T13:52:47;99262.56;;;23.01;33.79
7668;BME280;3876;42.204;24.686;2022-09-20T13:55:29;99263.53;;;23.00;34.48
7668;BME280;3876;42.204;24.686;2022-09-20T13:57:59;99264.03;;;22.94;33.57
7668;BME280;3876;42.204;24.686;2022-09-20T14:00:27;99273.03;;;22.81;32.64
7668;BME280;3876;42.204;24.686;2022-09-20T14:02:56;99274.00;;;22.80;32.71
7668;BME280;3876;42.204;24.686;2022-09-20T14:05:26;99271.72;;;22.86;33.11
7668;BME280;3876;42.204;24.686;2022-09-20T14:07:55;99258.22;;;22.91;33.08
7668;BME280;3876;42.204;24.686;2022-09-20T14:10:28;99278.78;;;22.95;33.08
7668;BME280;3876;42.204;24.686;2022-09-20T14:12:58;99273.13;;;22.90;33.13
7668;BME280;3876;42.204;24.686;2022-09-20T14:15:31;99274.63;;;22.72;33.15
7668;BME280;3876;42.204;24.686;2022-09-20T14:18:00;99267.97;;;22.68;33.12
7668;BME280;3876;42.204;24.686;2022-09-20T14:20:28;99272.41;;;22.68;33.32
7668;BME280;3876;42.204;24.686;2022-09-20T14:22:55;99269.28;;;22.74;33.67
7668;BME280;3876;42.204;24.686;2022-09-20T14:25:24;99275.09;;;22.77;33.54
7668;BME280;3876;42.204;24.686;2022-09-20T14:28:06;99278.19;;;22.71;34.00
7668;BME280;3876;42.204;24.686;2022-09-20T14:30:34;99264.06;;;22.74;34.32
7668;BME280;3876;42.204;24.686;2022-09-20T14:33:02;99269.84;;;22.77;33.48
7668;BME280;3876;42.204;24.686;2022-09-20T14:35:30;99275.59;;;22.71;33.40
7668;BME280;3876;42.204;24.686;2022-09-20T14:37:59;99273.91;;;22.70;33.42